Time;durP1;ratioP1;P1;durP2;ratioP2;P2;SDS_P1;SDS_P2;PMS_P1;PMS_P2;Temp;Humidity;BMP_temperature;BMP_pressure;BME280_temperature;BME280_humidity;BME280_pressure;Samples;Min_cycle;Max_cycle;Signal;HPM_P1;HPM_P2
2021/07/15 00:00:56;;;;;;;324.10;54.22;;;17.80;99.90;;;;;;4823020;29;20091;-89
2021/07/15 00:03:24;;;;;;;298.95;53.05;;;17.80;99.90;;;;;;4856233;29;20097;-88
2021/07/15 00:05:50;;;;;;;259.60;46.67;;;17.70;99.90;;;;;;4854889;29;20048;-88
2021/07/15 00:08:17;;;;;;;261.17;49.38;;;17.70;99.90;;;;;;4840365;29;20042;-89
2021/07/15 00:10:43;;;;;;;284.20;51.58;;;17.80;99.90;;;;;;4840770;29;20576;-90
2021/07/15 00:13:09;;;;;;;295.92;51.47;;;17.80;99.90;;;;;;4847909;29;20026;-90
2021/07/15 00:15:37;;;;;;;235.77;45.35;;;17.80;99.90;;;;;;4837669;29;20030;-91
2021/07/15 00:18:03;;;;;;;274.67;47.95;;;17.80;99.90;;;;;;4852421;29;20734;-89
2021/07/15 00:20:28;;;;;;;247.13;45.22;;;17.80;99.90;;;;;;4837234;29;20036;-90
2021/07/15 00:22:54;;;;;;;190.27;40.55;;;17.80;99.90;;;;;;4855531;29;20037;-88
2021/07/15 00:25:20;;;;;;;176.25;39.45;;;17.80;99.90;;;;;;4855795;29;20065;-88
2021/07/15 00:27:46;;;;;;;213.00;40.88;;;17.80;99.90;;;;;;4830613;29;20042;-90
2021/07/15 00:30:12;;;;;;;170.20;37.08;;;17.80;99.90;;;;;;4833867;29;20153;-89
2021/07/15 00:32:38;;;;;;;214.65;41.55;;;17.80;99.90;;;;;;4840477;29;20038;-87
2021/07/15 00:35:05;;;;;;;188.05;40.10;;;17.80;99.90;;;;;;4840317;29;20049;-87
2021/07/15 00:37:30;;;;;;;249.68;43.95;;;17.80;99.90;;;;;;4832491;29;20045;-89
2021/07/15 00:39:56;;;;;;;167.05;37.95;;;17.80;99.90;;;;;;4822225;29;20034;-90
2021/07/15 00:42:21;;;;;;;271.85;47.05;;;17.80;99.90;;;;;;4837099;29;20034;-88
2021/07/15 00:44:47;;;;;;;206.70;38.63;;;17.80;99.90;;;;;;4855113;29;20046;-90
2021/07/15 00:47:12;;;;;;;227.68;46.33;;;17.80;99.90;;;;;;4855413;29;20049;-88
2021/07/15 00:49:38;;;;;;;206.10;43.75;;;17.80;99.90;;;;;;4837755;29;20025;-90
2021/07/15 00:52:03;;;;;;;262.23;48.40;;;17.80;99.90;;;;;;4837031;29;20722;-89
2021/07/15 00:54:29;;;;;;;198.77;44.25;;;17.80;99.90;;;;;;4852059;29;20707;-89
2021/07/15 00:56:55;;;;;;;190.57;44.95;;;17.80;99.90;;;;;;4836998;29;20030;-89
2021/07/15 00:59:21;;;;;;;257.63;48.28;;;17.80;99.90;;;;;;4852171;29;20544;-87
2021/07/15 01:01:47;;;;;;;234.63;41.85;;;17.70;99.90;;;;;;4851591;29;20034;-87
2021/07/15 01:04:13;;;;;;;183.90;42.80;;;17.80;99.90;;;;;;4836674;29;20046;-88
2021/07/15 01:06:38;;;;;;;222.35;46.28;;;17.80;99.90;;;;;;4821688;29;20045;-89
2021/07/15 01:09:04;;;;;;;243.13;49.75;;;17.80;99.90;;;;;;4836319;29;20048;-89
2021/07/15 01:11:32;;;;;;;232.02;47.47;;;17.80;99.90;;;;;;4836668;29;20030;-89
2021/07/15 01:14:01;;;;;;;250.88;47.50;;;17.80;99.90;;;;;;4837904;29;20058;-90
2021/07/15 01:17:03;;;;;;;247.85;47.50;;;17.80;99.90;;;;;;4851401;29;20030;-89
2021/07/15 01:20:12;;;;;;;281.83;51.20;;;17.80;99.90;;;;;;4821697;29;20038;-87
2021/07/15 01:22:47;;;;;;;223.52;44.22;;;17.80;99.90;;;;;;4823621;29;20062;-89
2021/07/15 01:25:40;;;;;;;242.43;45.85;;;17.80;99.90;;;;;;4836192;29;20114;-89
2021/07/15 01:28:21;;;;;;;272.27;52.15;;;17.80;99.90;;;;;;4836398;29;20041;-89
2021/07/15 01:30:51;;;;;;;293.27;50.20;;;17.80;99.90;;;;;;4821465;29;20038;-89
2021/07/15 01:33:20;;;;;;;194.40;43.50;;;17.80;99.90;;;;;;4835952;29;20746;-88
2021/07/15 01:36:04;;;;;;;303.45;52.10;;;17.80;99.90;;;;;;4849575;29;20046;-89
2021/07/15 01:38:32;;;;;;;337.63;53.13;;;17.80;99.90;;;;;;4838754;29;20081;-88
2021/07/15 01:41:21;;;;;;;280.15;50.47;;;17.80;99.90;;;;;;4836779;29;20037;-87
2021/07/15 01:43:51;;;;;;;242.18;46.50;;;17.80;99.90;;;;;;4833525;29;20038;-90
2021/07/15 01:46:17;;;;;;;355.52;54.65;;;17.80;99.90;;;;;;4835662;29;20044;-89
2021/07/15 01:48:43;;;;;;;284.70;48.80;;;17.80;99.90;;;;;;4851243;29;20117;-89
2021/07/15 01:51:09;;;;;;;364.13;53.88;;;17.80;99.90;;;;;;4838860;29;20140;-88
2021/07/15 01:53:35;;;;;;;241.90;49.45;;;17.80;99.90;;;;;;4838742;29;20555;-90
2021/07/15 01:56:00;;;;;;;276.67;49.28;;;17.80;99.90;;;;;;4838620;29;20112;-89
2021/07/15 01:58:27;;;;;;;306.88;52.47;;;17.80;99.90;;;;;;4838559;29;20057;-88
2021/07/15 02:00:52;;;;;;;386.15;50.55;;;17.80;99.90;;;;;;4838712;29;20033;-90
2021/07/15 02:03:18;;;;;;;272.52;49.13;;;17.80;99.90;;;;;;4854250;29;20126;-89
2021/07/15 02:05:44;;;;;;;280.35;49.60;;;17.80;99.90;;;;;;4854676;29;20044;-89
2021/07/15 02:08:10;;;;;;;248.82;47.35;;;17.80;99.90;;;;;;4838483;29;20036;-90
2021/07/15 02:10:35;;;;;;;379.23;52.75;;;17.80;99.90;;;;;;4839092;29;20667;-88
2021/07/15 02:13:01;;;;;;;241.02;44.53;;;17.80;99.90;;;;;;4843544;29;20034;-89
2021/07/15 02:15:26;;;;;;;337.90;46.67;;;17.80;99.90;;;;;;4835644;29;20032;-87
2021/07/15 02:17:52;;;;;;;312.45;51.15;;;17.80;99.90;;;;;;4835452;29;20132;-86
2021/07/15 02:20:18;;;;;;;267.65;47.75;;;17.90;99.90;;;;;;4835993;29;20045;-89
2021/07/15 02:22:44;;;;;;;259.05;48.92;;;17.80;99.90;;;;;;4838877;29;20078;-88
2021/07/15 02:25:10;;;;;;;318.42;47.90;;;17.80;99.90;;;;;;4837725;29;20057;-89
2021/07/15 02:27:36;;;;;;;352.95;52.45;;;17.80;99.90;;;;;;4835322;29;20030;-89
2021/07/15 02:30:04;;;;;;;349.90;52.45;;;17.80;99.90;;;;;;4851355;29;20033;-89
2021/07/15 02:32:29;;;;;;;309.65;49.13;;;17.80;99.90;;;;;;4825523;29;20120;-88
2021/07/15 02:35:00;;;;;;;287.27;43.97;;;17.80;99.90;;;;;;4823862;29;20634;-89
2021/07/15 02:37:30;;;;;;;375.00;53.55;;;17.80;99.90;;;;;;4838991;29;20034;-89
2021/07/15 02:39:55;;;;;;;327.70;51.13;;;17.80;99.90;;;;;;4854379;29;20041;-88
2021/07/15 02:42:21;;;;;;;260.98;46.92;;;17.70;99.90;;;;;;4857139;29;20404;-89
2021/07/15 02:44:47;;;;;;;294.83;47.35;;;17.70;99.90;;;;;;4839030;29;20762;-87
2021/07/15 02:47:12;;;;;;;258.58;43.35;;;17.80;99.90;;;;;;4838778;29;20054;-89
2021/07/15 02:49:39;;;;;;;273.63;47.17;;;17.80;99.90;;;;;;4854392;29;20447;-87
2021/07/15 02:52:06;;;;;;;321.17;46.90;;;17.80;99.90;;;;;;4846319;29;20100;-86
2021/07/15 02:54:31;;;;;;;371.35;49.30;;;17.70;99.90;;;;;;4838821;29;20099;-88
2021/07/15 02:57:19;;;;;;;277.88;43.25;;;17.80;99.90;;;;;;4854279;29;20026;-89
2021/07/15 02:59:56;;;;;;;259.92;41.33;;;17.80;99.90;;;;;;4852149;29;20036;-88
2021/07/15 03:02:27;;;;;;;330.33;49.38;;;17.80;99.90;;;;;;4838408;29;20033;-89
2021/07/15 03:05:11;;;;;;;289.25;47.13;;;17.80;99.90;;;;;;4838235;29;20041;-88
2021/07/15 03:07:42;;;;;;;280.25;44.97;;;17.80;99.90;;;;;;4854150;29;20081;-89
2021/07/15 03:10:08;;;;;;;307.50;48.17;;;17.80;99.90;;;;;;4840934;29;20025;-87
2021/07/15 03:12:34;;;;;;;302.40;44.15;;;17.80;99.90;;;;;;4839739;29;20466;-87
2021/07/15 03:15:00;;;;;;;340.70;45.85;;;17.80;99.90;;;;;;4829551;29;20037;-89
2021/07/15 03:17:34;;;;;;;391.35;52.45;;;17.70;99.90;;;;;;4826486;29;20026;-88
2021/07/15 03:20:03;;;;;;;261.25;47.22;;;17.80;99.90;;;;;;4839219;29;20029;-88
2021/07/15 03:22:28;;;;;;;276.63;45.55;;;17.70;99.90;;;;;;4853448;29;20026;-87
2021/07/15 03:24:57;;;;;;;239.02;44.00;;;17.80;99.90;;;;;;4853597;29;20026;-87
2021/07/15 03:27:23;;;;;;;301.50;46.47;;;17.80;99.90;;;;;;4838080;29;20036;-88
2021/07/15 03:29:48;;;;;;;271.05;44.45;;;17.80;99.90;;;;;;4838052;29;20034;-89
2021/07/15 03:32:14;;;;;;;270.83;41.13;;;17.80;99.90;;;;;;4838188;29;20022;-88
2021/07/15 03:34:40;;;;;;;323.20;43.85;;;17.80;99.90;;;;;;4853720;29;20397;-86
2021/07/15 03:37:05;;;;;;;267.02;44.20;;;17.80;99.90;;;;;;4837541;29;20066;-88
2021/07/15 03:39:31;;;;;;;261.23;43.65;;;17.80;99.90;;;;;;4836331;29;20040;-89
2021/07/15 03:41:56;;;;;;;299.55;46.83;;;17.80;99.90;;;;;;4847706;29;20508;-89
2021/07/15 03:44:22;;;;;;;214.38;42.08;;;17.80;99.90;;;;;;4841461;29;20564;-87
2021/07/15 03:46:48;;;;;;;331.08;47.20;;;17.80;99.90;;;;;;4840753;29;20033;-88
2021/07/15 03:49:18;;;;;;;204.13;38.72;;;17.80;99.90;;;;;;4840814;29;20044;-87
2021/07/15 03:51:44;;;;;;;277.40;43.05;;;17.80;99.90;;;;;;4825809;29;20042;-88
2021/07/15 03:54:13;;;;;;;294.42;46.90;;;17.80;99.90;;;;;;4837636;29;20038;-87
2021/07/15 03:56:41;;;;;;;237.35;42.33;;;17.80;99.90;;;;;;4823297;29;20045;-89
2021/07/15 03:59:07;;;;;;;237.15;40.53;;;17.80;99.90;;;;;;4822849;29;20038;-87
2021/07/15 04:01:32;;;;;;;245.35;42.67;;;17.80;99.90;;;;;;4822861;29;20075;-88
2021/07/15 04:04:00;;;;;;;237.48;41.88;;;17.80;99.90;;;;;;4834382;29;20130;-89
2021/07/15 04:06:27;;;;;;;185.45;36.33;;;17.80;99.90;;;;;;4838512;29;20041;-89
2021/07/15 04:08:52;;;;;;;212.32;41.13;;;17.80;99.90;;;;;;4840474;29;20088;-87
2021/07/15 04:11:18;;;;;;;215.98;38.28;;;17.80;99.90;;;;;;4843496;29;20167;-89
2021/07/15 04:13:44;;;;;;;224.70;39.95;;;17.80;99.90;;;;;;4837571;29;20037;-89
2021/07/15 04:16:09;;;;;;;234.43;38.70;;;17.80;99.90;;;;;;4837207;29;20450;-88
2021/07/15 04:18:37;;;;;;;249.30;40.03;;;17.80;99.90;;;;;;4837271;29;20118;-88
2021/07/15 04:21:03;;;;;;;168.85;34.35;;;17.80;99.90;;;;;;4821923;29;20034;-89
2021/07/15 04:23:29;;;;;;;230.00;39.10;;;17.80;99.90;;;;;;4822345;29;20053;-88
2021/07/15 04:25:55;;;;;;;191.57;36.42;;;17.80;99.90;;;;;;4822341;29;20033;-88
2021/07/15 04:28:20;;;;;;;134.10;30.17;;;17.80;99.90;;;;;;4836835;29;20048;-89
2021/07/15 04:30:47;;;;;;;126.35;30.73;;;17.80;99.90;;;;;;4821957;29;20030;-86
2021/07/15 04:33:13;;;;;;;131.90;30.13;;;17.90;99.90;;;;;;4837519;29;20114;-89
2021/07/15 04:35:38;;;;;;;115.03;28.33;;;17.80;99.90;;;;;;4837175;29;20113;-88
2021/07/15 04:38:04;;;;;;;63.25;21.23;;;17.80;99.90;;;;;;4852312;29;20046;-87
2021/07/15 04:40:30;;;;;;;115.63;26.85;;;17.80;99.90;;;;;;4823113;29;20053;-87
2021/07/15 04:43:04;;;;;;;124.03;29.67;;;17.80;99.90;;;;;;4837095;29;20408;-86
2021/07/15 04:45:29;;;;;;;82.50;24.88;;;17.80;99.90;;;;;;4822001;29;20057;-87
2021/07/15 04:47:55;;;;;;;106.18;25.55;;;17.80;99.90;;;;;;4821570;29;20052;-88
2021/07/15 04:50:22;;;;;;;95.72;24.13;;;17.80;99.90;;;;;;4821836;29;20030;-87
2021/07/15 04:52:51;;;;;;;92.55;23.00;;;17.80;99.90;;;;;;4821467;29;20033;-86
2021/07/15 04:55:16;;;;;;;54.65;18.20;;;17.80;99.90;;;;;;4823925;29;20073;-88
2021/07/15 04:57:42;;;;;;;57.63;19.00;;;17.90;99.90;;;;;;4851601;29;20064;-88
2021/07/15 05:00:12;;;;;;;43.72;17.02;;;17.90;99.90;;;;;;4837006;29;20036;-87
2021/07/15 05:02:38;;;;;;;68.30;20.23;;;17.90;99.90;;;;;;4835644;29;20053;-87
2021/07/15 05:05:07;;;;;;;109.93;25.75;;;17.90;99.90;;;;;;4820088;29;20458;-89
2021/07/15 05:07:34;;;;;;;78.22;23.00;;;17.90;99.90;;;;;;4821488;29;20030;-88
2021/07/15 05:10:17;;;;;;;103.85;26.00;;;17.90;99.90;;;;;;4842575;29;20022;-90
2021/07/15 05:12:44;;;;;;;97.47;23.90;;;17.90;99.90;;;;;;4837074;29;20101;-88
2021/07/15 05:15:25;;;;;;;61.38;21.05;;;17.90;99.90;;;;;;4840282;29;20045;-88
2021/07/15 05:17:50;;;;;;;90.40;23.73;;;17.90;99.90;;;;;;4840292;29;20034;-88
2021/07/15 05:20:16;;;;;;;62.53;19.52;;;17.80;99.90;;;;;;4828056;29;20037;-87
2021/07/15 05:22:41;;;;;;;76.60;21.70;;;17.90;99.90;;;;;;4857038;29;20037;-88
2021/07/15 05:25:07;;;;;;;47.58;18.58;;;18.00;99.90;;;;;;4840494;29;20041;-88
2021/07/15 05:27:40;;;;;;;76.40;27.02;;;18.00;99.90;;;;;;4823546;29;20041;-89
2021/07/15 05:30:07;;;;;;;154.98;34.20;;;17.90;99.90;;;;;;4839129;29;20030;-88
2021/07/15 05:32:33;;;;;;;198.45;35.40;;;17.90;99.90;;;;;;4840020;29;20185;-89
2021/07/15 05:34:58;;;;;;;171.55;37.20;;;17.90;99.90;;;;;;4840140;29;20501;-89
2021/07/15 05:37:24;;;;;;;180.00;37.85;;;18.00;99.90;;;;;;4838536;29;20026;-89
2021/07/15 05:39:49;;;;;;;129.95;32.00;;;17.90;99.90;;;;;;4840454;29;20027;-87
2021/07/15 05:42:15;;;;;;;146.23;32.45;;;18.00;99.90;;;;;;4836102;29;20037;-89
2021/07/15 05:44:40;;;;;;;139.85;29.90;;;18.00;99.90;;;;;;4835925;29;20035;-89
2021/07/15 05:47:09;;;;;;;89.07;28.63;;;18.00;99.90;;;;;;4835475;29;20030;-88
2021/07/15 05:49:37;;;;;;;156.75;32.45;;;18.00;99.90;;;;;;4846690;29;20057;-88
2021/07/15 05:52:04;;;;;;;141.20;31.38;;;18.00;99.90;;;;;;4858562;29;20025;-88
2021/07/15 05:54:30;;;;;;;93.22;28.15;;;18.00;99.90;;;;;;4842216;29;20025;-88
2021/07/15 05:56:55;;;;;;;111.95;30.55;;;18.00;99.90;;;;;;4839924;29;20138;-88
2021/07/15 05:59:21;;;;;;;166.27;32.75;;;18.00;99.90;;;;;;4839742;29;20044;-88
2021/07/15 06:01:46;;;;;;;111.35;28.38;;;18.00;99.90;;;;;;4839277;29;20082;-89
2021/07/15 06:04:12;;;;;;;38.20;18.48;;;18.00;99.90;;;;;;4822816;29;20030;-88
2021/07/15 06:06:37;;;;;;;109.50;28.63;;;18.10;99.90;;;;;;4838668;29;20030;-88
2021/07/15 06:09:03;;;;;;;107.32;27.33;;;18.10;99.90;;;;;;4845412;29;20034;-89
2021/07/15 06:11:29;;;;;;;121.57;28.63;;;18.10;99.90;;;;;;4839229;29;20034;-89
2021/07/15 06:13:54;;;;;;;62.30;22.55;;;18.10;99.90;;;;;;4839490;29;20026;-88
2021/07/15 06:16:20;;;;;;;57.90;21.73;;;18.10;99.90;;;;;;4839564;29;20112;-88
2021/07/15 06:18:46;;;;;;;79.18;24.58;;;18.00;99.90;;;;;;4854986;29;20501;-89
2021/07/15 06:21:14;;;;;;;87.50;25.17;;;18.00;99.90;;;;;;4839576;29;20525;-88
2021/07/15 06:23:42;;;;;;;116.15;28.33;;;18.00;99.90;;;;;;4839645;29;20038;-88
2021/07/15 06:26:09;;;;;;;131.45;30.85;;;18.00;99.90;;;;;;4839563;29;20048;-88
2021/07/15 06:28:35;;;;;;;110.75;29.45;;;18.00;99.90;;;;;;4854546;29;20061;-89
2021/07/15 06:31:15;;;;;;;100.18;30.23;;;18.10;99.90;;;;;;4839494;29;20056;-89
2021/07/15 06:33:40;;;;;;;165.52;32.03;;;18.10;99.90;;;;;;4849449;23;20106;-89
2021/07/15 06:36:06;;;;;;;157.52;33.63;;;18.10;99.90;;;;;;4848729;29;20631;-89
2021/07/15 06:38:34;;;;;;;119.82;31.65;;;18.10;99.90;;;;;;4818451;29;20826;-89
2021/07/15 06:41:01;;;;;;;146.00;31.40;;;18.10;99.90;;;;;;4818844;29;20476;-89
2021/07/15 06:43:26;;;;;;;115.68;29.40;;;18.10;99.90;;;;;;4816058;29;20122;-89
2021/07/15 06:45:52;;;;;;;177.88;35.03;;;18.10;99.90;;;;;;4831451;29;20067;-89
2021/07/15 06:48:18;;;;;;;99.40;36.00;;;18.10;99.90;;;;;;4830852;29;20045;-89
2021/07/15 06:50:43;;;;;;;273.42;44.92;;;18.10;99.90;;;;;;4831270;29;20026;-86
2021/07/15 06:53:09;;;;;;;128.45;39.75;;;18.20;99.90;;;;;;4793485;29;20030;-89
2021/07/15 06:55:34;;;;;;;363.52;59.80;;;18.10;99.90;;;;;;4835821;29;20034;-88
2021/07/15 06:58:12;;;;;;;347.52;58.22;;;18.20;99.90;;;;;;4835501;29;20064;-87
2021/07/15 07:00:37;;;;;;;332.00;61.13;;;18.10;99.90;;;;;;4835838;29;20041;-88
2021/07/15 07:03:03;;;;;;;352.55;55.75;;;18.20;99.90;;;;;;4835732;29;20034;-88
2021/07/15 07:05:28;;;;;;;341.90;59.47;;;18.10;99.90;;;;;;4835437;29;20030;-89
2021/07/15 07:07:54;;;;;;;123.65;41.65;;;18.20;99.90;;;;;;4820022;29;20034;-89
2021/07/15 07:10:20;;;;;;;231.88;48.92;;;18.20;99.90;;;;;;4820228;29;20087;-88
2021/07/15 07:12:45;;;;;;;359.75;54.15;;;18.20;99.90;;;;;;4819406;29;20030;-88
2021/07/15 07:15:12;;;;;;;359.20;54.78;;;18.20;99.90;;;;;;4843670;29;20037;-89
2021/07/15 07:17:38;;;;;;;334.63;53.40;;;18.20;99.90;;;;;;4837823;29;20026;-89
2021/07/15 07:20:05;;;;;;;315.83;49.90;;;18.20;99.90;;;;;;4817872;29;20037;-88
2021/07/15 07:22:41;;;;;;;299.45;50.42;;;18.20;99.90;;;;;;4837841;29;20054;-89
2021/07/15 07:25:08;;;;;;;235.75;49.70;;;18.20;99.90;;;;;;4838032;29;20026;-90
2021/07/15 07:27:33;;;;;;;122.00;39.63;;;18.20;99.90;;;;;;4843777;29;20050;-88
2021/07/15 07:29:59;;;;;;;315.60;51.85;;;18.20;99.90;;;;;;4839887;29;20055;-89
2021/07/15 07:32:25;;;;;;;345.65;52.20;;;18.30;99.90;;;;;;4803281;29;1072062;-89
2021/07/15 07:34:50;;;;;;;344.92;54.47;;;18.20;99.90;;;;;;4838876;29;20459;-89
2021/07/15 07:37:16;;;;;;;311.83;53.40;;;18.20;99.90;;;;;;4823252;29;20118;-88
2021/07/15 07:39:41;;;;;;;334.17;54.55;;;18.20;99.90;;;;;;4823856;29;20062;-88
2021/07/15 07:42:07;;;;;;;329.58;51.97;;;18.20;99.90;;;;;;4839061;29;20041;-88
2021/07/15 07:44:32;;;;;;;188.38;47.60;;;18.30;99.90;;;;;;4839008;29;20031;-88
2021/07/15 07:46:58;;;;;;;144.32;39.92;;;18.30;99.90;;;;;;4839122;29;20038;-89
2021/07/15 07:49:24;;;;;;;126.70;42.42;;;18.40;99.90;;;;;;4838588;29;20037;-89
2021/07/15 07:51:49;;;;;;;66.80;32.17;;;18.40;99.90;;;;;;4838269;29;20022;-88
2021/07/15 07:54:15;;;;;;;110.47;37.13;;;18.40;99.90;;;;;;4838464;29;20036;-88
2021/07/15 07:56:40;;;;;;;128.40;40.70;;;18.40;99.90;;;;;;4835410;29;20030;-88
2021/07/15 07:59:06;;;;;;;76.05;33.90;;;18.40;99.90;;;;;;4834728;29;20046;-89
2021/07/15 08:01:31;;;;;;;154.85;42.40;;;18.40;99.90;;;;;;4821575;29;20129;-87
2021/07/15 08:03:57;;;;;;;107.20;37.53;;;18.50;99.90;;;;;;4823135;29;20034;-89
2021/07/15 08:06:22;;;;;;;89.25;38.28;;;18.50;99.90;;;;;;4823119;29;20394;-89
2021/07/15 08:08:48;;;;;;;134.93;42.97;;;18.50;99.90;;;;;;4823434;29;20079;-89
2021/07/15 08:11:15;;;;;;;84.20;36.38;;;18.50;99.90;;;;;;4818134;29;20023;-88
2021/07/15 08:13:41;;;;;;;118.88;38.80;;;18.60;99.90;;;;;;4823402;29;20027;-90
2021/07/15 08:16:06;;;;;;;159.20;38.13;;;18.60;99.90;;;;;;4823397;29;20129;-90
2021/07/15 08:18:32;;;;;;;209.98;42.80;;;18.60;99.90;;;;;;4823524;29;20490;-89
2021/07/15 08:20:58;;;;;;;77.75;35.65;;;18.70;99.90;;;;;;4823509;29;20841;-90
2021/07/15 08:23:24;;;;;;;79.13;36.80;;;18.60;99.90;;;;;;4823368;29;20044;-89
2021/07/15 08:25:49;;;;;;;73.18;34.70;;;18.70;99.90;;;;;;4822624;29;20038;-89
2021/07/15 08:28:15;;;;;;;38.97;28.60;;;18.70;99.90;;;;;;4823128;29;20061;-89
2021/07/15 08:30:41;;;;;;;59.80;30.98;;;18.70;99.90;;;;;;4823193;29;20030;-89
2021/07/15 08:33:06;;;;;;;144.30;37.17;;;18.70;99.90;;;;;;4838338;29;20428;-89
2021/07/15 08:35:32;;;;;;;67.50;30.33;;;18.80;99.90;;;;;;4823290;29;20034;-90
2021/07/15 08:37:59;;;;;;;37.95;25.50;;;18.90;99.90;;;;;;4822619;29;20030;-88
2021/07/15 08:40:26;;;;;;;38.42;25.65;;;18.90;99.90;;;;;;4817563;29;20034;-89
2021/07/15 08:42:54;;;;;;;49.13;28.77;;;18.90;99.90;;;;;;4830241;29;20130;-89
2021/07/15 08:45:21;;;;;;;46.72;24.00;;;19.00;99.90;;;;;;4816411;29;20053;-89
2021/07/15 08:47:47;;;;;;;29.02;17.95;;;19.00;99.90;;;;;;4848677;24;20518;-88
2021/07/15 08:50:15;;;;;;;31.15;20.65;;;19.10;99.90;;;;;;4807673;29;20073;-90
2021/07/15 08:52:42;;;;;;;88.03;26.73;;;19.00;99.90;;;;;;4792883;29;20034;-89
2021/07/15 08:57:37;;;;;;;48.80;19.02;;;19.10;99.90;;;;;;4822412;29;20034;-90
2021/07/15 09:00:10;;;;;;;51.15;19.58;;;19.10;99.90;;;;;;4807662;29;20034;-89
2021/07/15 09:02:35;;;;;;;22.25;12.98;;;19.10;99.90;;;;;;4808019;29;20030;-89
2021/07/15 09:05:02;;;;;;;17.25;12.65;;;19.10;99.90;;;;;;4807755;29;20448;-90
2021/07/15 09:07:31;;;;;;;29.88;15.48;;;19.10;99.90;;;;;;4808094;29;20603;-89
2021/07/15 09:09:57;;;;;;;31.92;17.65;;;19.10;99.90;;;;;;4807428;29;20113;-89
2021/07/15 09:12:22;;;;;;;28.25;18.27;;;19.20;99.90;;;;;;4805031;29;20130;-89
2021/07/15 09:14:49;;;;;;;42.60;18.42;;;19.20;99.90;;;;;;4822138;29;20031;-88
2021/07/15 09:17:16;;;;;;;40.50;19.67;;;19.30;99.90;;;;;;4807480;29;20117;-89
2021/07/15 09:19:45;;;;;;;34.83;17.23;;;19.40;99.90;;;;;;4821119;29;20022;-87
2021/07/15 09:22:14;;;;;;;31.58;18.65;;;19.40;99.90;;;;;;4813423;29;20179;-89
2021/07/15 09:24:44;;;;;;;30.60;17.10;;;19.40;99.90;;;;;;4806897;29;20549;-88
2021/07/15 09:27:24;;;;;;;32.15;18.08;;;19.50;99.90;;;;;;4806963;29;20026;-89
2021/07/15 09:30:06;;;;;;;20.88;15.10;;;19.50;99.90;;;;;;4807100;29;20086;-88
2021/07/15 09:32:31;;;;;;;24.13;15.00;;;19.50;99.90;;;;;;4806991;29;20030;-89
2021/07/15 09:35:07;;;;;;;26.13;15.00;;;19.50;99.90;;;;;;4806937;29;20106;-88
2021/07/15 09:37:35;;;;;;;22.25;13.18;;;19.60;99.90;;;;;;4806636;29;20054;-88
2021/07/15 09:40:02;;;;;;;24.15;16.02;;;19.50;99.90;;;;;;4806777;29;20037;-89
2021/07/15 09:42:28;;;;;;;25.02;15.60;;;19.60;99.90;;;;;;4806820;29;20078;-89
2021/07/15 09:44:53;;;;;;;22.27;14.57;;;19.70;99.90;;;;;;4822164;29;20027;-89
2021/07/15 09:47:36;;;;;;;24.35;15.35;;;19.70;99.90;;;;;;4806113;29;20038;-88
2021/07/15 09:50:21;;;;;;;27.30;15.07;;;19.70;99.90;;;;;;4806275;29;20066;-89
2021/07/15 09:52:47;;;;;;;15.40;10.52;;;19.70;99.90;;;;;;4808625;29;20121;-90
2021/07/15 09:55:23;;;;;;;17.30;11.55;;;19.70;99.90;;;;;;4821765;29;20110;-88
2021/07/15 09:58:09;;;;;;;19.02;10.80;;;19.70;99.90;;;;;;4806135;29;20034;-89
2021/07/15 10:00:35;;;;;;;17.45;13.02;;;19.80;99.90;;;;;;4814613;29;20030;-89
2021/07/15 10:03:01;;;;;;;12.75;10.32;;;19.80;99.90;;;;;;4806097;29;20113;-90
2021/07/15 10:05:27;;;;;;;24.90;13.45;;;19.70;99.90;;;;;;4802285;29;20027;-89
2021/07/15 10:08:09;;;;;;;22.80;13.88;;;19.80;99.90;;;;;;4817863;29;20034;-88
2021/07/15 10:10:35;;;;;;;18.63;12.80;;;19.80;99.90;;;;;;4821251;29;20030;-89
2021/07/15 10:13:17;;;;;;;24.13;14.38;;;19.80;99.90;;;;;;4806238;29;20034;-89
2021/07/15 10:15:43;;;;;;;16.88;9.73;;;19.80;99.90;;;;;;4806745;29;20083;-89
2021/07/15 10:18:08;;;;;;;9.35;8.30;;;19.80;99.90;;;;;;4804443;29;20062;-88
2021/07/15 10:20:34;;;;;;;10.05;8.65;;;19.90;99.90;;;;;;4806303;29;20083;-89
2021/07/15 10:23:00;;;;;;;14.68;8.32;;;19.80;99.90;;;;;;4791181;29;20035;-89
2021/07/15 10:25:25;;;;;;;10.38;7.05;;;19.80;99.90;;;;;;4805514;29;20068;-88
2021/07/15 10:27:51;;;;;;;8.05;6.82;;;19.80;99.90;;;;;;4790283;29;20048;-88
2021/07/15 10:30:16;;;;;;;13.98;9.23;;;19.80;99.90;;;;;;4806118;29;20100;-89
2021/07/15 10:32:42;;;;;;;19.88;11.00;;;19.80;99.90;;;;;;4805988;29;20034;-89
2021/07/15 10:35:09;;;;;;;19.27;14.60;;;19.80;99.90;;;;;;4805658;29;20784;-89
2021/07/15 10:37:38;;;;;;;20.48;15.48;;;19.80;99.90;;;;;;4805597;29;20054;-87
2021/07/15 10:40:04;;;;;;;31.50;17.20;;;19.80;99.90;;;;;;4805530;29;20391;-89
2021/07/15 10:42:31;;;;;;;25.90;18.88;;;19.90;99.90;;;;;;4805627;29;20405;-89
2021/07/15 10:44:57;;;;;;;35.85;18.88;;;19.90;99.90;;;;;;4805822;29;20440;-88
2021/07/15 10:47:24;;;;;;;39.65;21.08;;;20.00;99.90;;;;;;4820770;29;20042;-89
2021/07/15 10:49:50;;;;;;;41.60;21.25;;;20.00;99.90;;;;;;4822246;29;20045;-89
2021/07/15 10:52:18;;;;;;;25.70;18.55;;;20.00;99.90;;;;;;4824305;29;20031;-89
2021/07/15 10:54:44;;;;;;;37.10;22.42;;;19.90;99.90;;;;;;4809647;29;20030;-89
2021/07/15 10:57:09;;;;;;;37.83;23.15;;;19.90;99.90;;;;;;4803767;29;20034;-87
2021/07/15 10:59:35;;;;;;;41.05;23.60;;;20.00;99.90;;;;;;4803384;29;20061;-89
2021/07/15 11:02:16;;;;;;;43.78;24.98;;;20.00;99.90;;;;;;4805388;29;20130;-88
2021/07/15 11:04:42;;;;;;;40.95;24.48;;;20.00;99.90;;;;;;4807376;29;20042;-89
2021/07/15 11:07:34;;;;;;;41.85;24.92;;;20.00;99.90;;;;;;4805007;29;20103;-90
2021/07/15 11:10:22;;;;;;;57.83;26.75;;;20.00;99.90;;;;;;4806087;29;20570;-90
2021/07/15 11:13:04;;;;;;;54.45;27.80;;;20.10;99.90;;;;;;4806467;29;20027;-91
2021/07/15 11:21:24;;;;;;;42.22;25.45;;;20.20;99.90;;;;;;4825809;29;20129;-89
2021/07/15 11:23:50;;;;;;;63.83;27.35;;;20.20;99.90;;;;;;4824078;29;20034;-89
2021/07/15 11:26:26;;;;;;;54.03;27.15;;;20.20;99.90;;;;;;4806796;29;20426;-89
2021/07/15 11:28:51;;;;;;;63.72;28.33;;;20.20;99.90;;;;;;4807704;29;20113;-90
2021/07/15 11:31:43;;;;;;;69.53;29.42;;;20.20;99.90;;;;;;4808812;29;20121;-89
2021/07/15 11:34:09;;;;;;;62.25;29.45;;;20.20;99.90;;;;;;4824053;29;20113;-88
2021/07/15 11:36:36;;;;;;;58.75;28.50;;;20.20;99.90;;;;;;4809336;29;20585;-89
2021/07/15 11:39:07;;;;;;;68.63;31.85;;;20.20;99.90;;;;;;4809124;29;20030;-89
2021/07/15 11:41:46;;;;;;;73.18;31.60;;;20.10;99.90;;;;;;4809016;29;20027;-89
2021/07/15 11:44:13;;;;;;;64.18;29.92;;;20.10;99.90;;;;;;4809186;29;20041;-90
2021/07/15 11:46:39;;;;;;;67.10;29.33;;;20.10;99.90;;;;;;4824104;29;20042;-89
2021/07/15 11:49:17;;;;;;;63.10;29.95;;;20.10;99.90;;;;;;4808751;29;20026;-89
2021/07/15 11:51:49;;;;;;;54.45;27.38;;;20.10;99.90;;;;;;4810092;29;20022;-90
2021/07/15 11:54:19;;;;;;;64.18;30.27;;;20.10;99.90;;;;;;4808448;29;20041;-88
2021/07/15 11:56:56;;;;;;;68.88;30.67;;;20.00;99.90;;;;;;4807556;29;20026;-88
2021/07/15 11:59:44;;;;;;;93.43;32.05;;;20.00;99.90;;;;;;4803975;29;20125;-87
2021/07/15 12:02:40;;;;;;;77.05;30.98;;;20.10;99.90;;;;;;4819564;29;20030;-88
2021/07/15 12:05:07;;;;;;;73.95;32.13;;;20.00;99.90;;;;;;4804432;29;20031;-89
2021/07/15 12:07:53;;;;;;;119.22;36.35;;;20.00;99.90;;;;;;4819498;29;20035;-88
2021/07/15 12:10:26;;;;;;;76.28;32.55;;;20.10;99.90;;;;;;4818540;29;20407;-88
2021/07/15 12:12:53;;;;;;;84.90;31.27;;;20.10;99.90;;;;;;4818129;29;20121;-89
2021/07/15 12:15:23;;;;;;;72.63;29.42;;;20.10;99.90;;;;;;4800740;29;20114;-88
2021/07/15 12:17:49;;;;;;;65.75;27.52;;;20.20;99.90;;;;;;4806628;29;20556;-88
2021/07/15 12:20:15;;;;;;;75.10;26.65;;;20.20;99.90;;;;;;4807171;29;20082;-87
2021/07/15 12:22:46;;;;;;;72.65;27.55;;;20.30;99.90;;;;;;4822022;29;20113;-87
2021/07/15 12:25:23;;;;;;;37.40;23.30;;;20.30;99.90;;;;;;4807216;29;20372;-88
2021/07/15 12:27:51;;;;;;;50.80;25.75;;;20.30;99.90;;;;;;4821749;29;20038;-88
2021/07/15 12:30:18;;;;;;;51.42;24.75;;;20.30;99.90;;;;;;4806862;29;20034;-88
2021/07/15 12:32:57;;;;;;;46.15;24.00;;;20.40;99.90;;;;;;4806614;29;20122;-88
2021/07/15 12:35:23;;;;;;;49.58;22.98;;;20.40;99.90;;;;;;4807403;29;20079;-87